sensor_id;sensor_type;location;lat;lon;timestamp;P1;durP1;ratioP1;P2;durP2;ratioP2
30378;SDS011;17168;49.164;9.060;2022-08-25T00:01:13;5.47;;;3.83;;
30378;SDS011;17168;49.164;9.060;2022-08-25T00:03:49;3.90;;;3.45;;
30378;SDS011;17168;49.164;9.060;2022-08-25T00:06:21;5.63;;;4.00;;
30378;SDS011;17168;49.164;9.060;2022-08-25T00:11:32;5.57;;;3.75;;
30378;SDS011;17168;49.164;9.060;2022-08-25T00:14:07;4.68;;;3.60;;
30378;SDS011;17168;49.164;9.060;2022-08-25T00:16:41;7.30;;;4.20;;
30378;SDS011;17168;49.164;9.060;2022-08-25T00:19:16;5.37;;;3.93;;
30378;SDS011;17168;49.164;9.060;2022-08-25T00:21:51;5.10;;;3.72;;
30378;SDS011;17168;49.164;9.060;2022-08-25T00:24:23;6.03;;;3.75;;
30378;SDS011;17168;49.164;9.060;2022-08-25T00:26:57;5.67;;;3.77;;
30378;SDS011;17168;49.164;9.060;2022-08-25T00:29:31;4.72;;;3.72;;
30378;SDS011;17168;49.164;9.060;2022-08-25T00:32:04;7.28;;;4.10;;
30378;SDS011;17168;49.164;9.060;2022-08-25T00:34:36;6.18;;;3.95;;
30378;SDS011;17168;49.164;9.060;2022-08-25T00:37:08;4.67;;;4.17;;
30378;SDS011;17168;49.164;9.060;2022-08-25T00:39:41;6.22;;;4.00;;
30378;SDS011;17168;49.164;9.060;2022-08-25T00:42:14;6.30;;;4.28;;
30378;SDS011;17168;49.164;9.060;2022-08-25T00:44:47;5.63;;;3.85;;
30378;SDS011;17168;49.164;9.060;2022-08-25T00:47:19;7.05;;;4.47;;
30378;SDS011;17168;49.164;9.060;2022-08-25T00:49:53;8.70;;;4.50;;
30378;SDS011;17168;49.164;9.060;2022-08-25T00:52:28;8.70;;;4.25;;
30378;SDS011;17168;49.164;9.060;2022-08-25T00:55:02;7.70;;;4.50;;
30378;SDS011;17168;49.164;9.060;2022-08-25T00:57:40;6.45;;;4.05;;
30378;SDS011;17168;49.164;9.060;2022-08-25T01:00:15;6.05;;;4.30;;
30378;SDS011;17168;49.164;9.060;2022-08-25T01:02:47;5.13;;;3.88;;
30378;SDS011;17168;49.164;9.060;2022-08-25T01:05:20;8.65;;;4.40;;
30378;SDS011;17168;49.164;9.060;2022-08-25T01:07:53;5.33;;;4.47;;
30378;SDS011;17168;49.164;9.060;2022-08-25T01:10:29;3.97;;;3.58;;
30378;SDS011;17168;49.164;9.060;2022-08-25T01:13:04;6.47;;;4.43;;
30378;SDS011;17168;49.164;9.060;2022-08-25T01:15:47;7.57;;;4.63;;
30378;SDS011;17168;49.164;9.060;2022-08-25T01:18:20;5.32;;;4.15;;
30378;SDS011;17168;49.164;9.060;2022-08-25T01:20:54;5.65;;;3.97;;
30378;SDS011;17168;49.164;9.060;2022-08-25T01:23:26;5.78;;;4.20;;
30378;SDS011;17168;49.164;9.060;2022-08-25T01:26:01;6.88;;;4.60;;
30378;SDS011;17168;49.164;9.060;2022-08-25T01:28:34;7.10;;;4.85;;
30378;SDS011;17168;49.164;9.060;2022-08-25T01:31:07;5.90;;;4.53;;
30378;SDS011;17168;49.164;9.060;2022-08-25T01:33:54;5.57;;;4.75;;
30378;SDS011;17168;49.164;9.060;2022-08-25T01:36:29;7.07;;;4.80;;
30378;SDS011;17168;49.164;9.060;2022-08-25T01:39:02;9.65;;;5.05;;
30378;SDS011;17168;49.164;9.060;2022-08-25T01:41:35;7.05;;;4.60;;
30378;SDS011;17168;49.164;9.060;2022-08-25T01:44:11;5.97;;;4.88;;
30378;SDS011;17168;49.164;9.060;2022-08-25T01:46:46;6.88;;;4.93;;
30378;SDS011;17168;49.164;9.060;2022-08-25T01:49:19;6.65;;;4.70;;
30378;SDS011;17168;49.164;9.060;2022-08-25T01:51:55;6.77;;;4.73;;
30378;SDS011;17168;49.164;9.060;2022-08-25T01:54:27;6.53;;;5.38;;
30378;SDS011;17168;49.164;9.060;2022-08-25T01:57:00;7.15;;;5.28;;
30378;SDS011;17168;49.164;9.060;2022-08-25T01:59:32;8.65;;;4.85;;
30378;SDS011;17168;49.164;9.060;2022-08-25T02:02:04;7.20;;;5.38;;
30378;SDS011;17168;49.164;9.060;2022-08-25T02:04:37;8.27;;;5.53;;
30378;SDS011;17168;49.164;9.060;2022-08-25T02:07:14;6.95;;;5.60;;
30378;SDS011;17168;49.164;9.060;2022-08-25T02:09:46;7.50;;;5.00;;
30378;SDS011;17168;49.164;9.060;2022-08-25T02:12:18;8.20;;;4.85;;
30378;SDS011;17168;49.164;9.060;2022-08-25T02:14:50;7.82;;;4.93;;
30378;SDS011;17168;49.164;9.060;2022-08-25T02:17:22;9.60;;;5.53;;
30378;SDS011;17168;49.164;9.060;2022-08-25T02:19:54;6.88;;;5.45;;
30378;SDS011;17168;49.164;9.060;2022-08-25T02:22:28;6.60;;;5.05;;
30378;SDS011;17168;49.164;9.060;2022-08-25T02:25:01;9.48;;;5.55;;
30378;SDS011;17168;49.164;9.060;2022-08-25T02:27:33;7.90;;;5.53;;
30378;SDS011;17168;49.164;9.060;2022-08-25T02:30:06;6.67;;;5.33;;
30378;SDS011;17168;49.164;9.060;2022-08-25T02:32:38;6.82;;;5.18;;
30378;SDS011;17168;49.164;9.060;2022-08-25T02:35:11;7.05;;;5.45;;
30378;SDS011;17168;49.164;9.060;2022-08-25T02:37:44;8.38;;;5.82;;
30378;SDS011;17168;49.164;9.060;2022-08-25T02:40:16;8.77;;;5.70;;
30378;SDS011;17168;49.164;9.060;2022-08-25T02:42:51;7.18;;;5.55;;
30378;SDS011;17168;49.164;9.060;2022-08-25T02:45:24;8.50;;;6.03;;
30378;SDS011;17168;49.164;9.060;2022-08-25T02:50:31;8.32;;;5.25;;
30378;SDS011;17168;49.164;9.060;2022-08-25T02:53:05;8.95;;;6.25;;
30378;SDS011;17168;49.164;9.060;2022-08-25T02:55:38;9.00;;;5.68;;
30378;SDS011;17168;49.164;9.060;2022-08-25T02:58:10;6.22;;;5.63;;
30378;SDS011;17168;49.164;9.060;2022-08-25T03:00:42;7.95;;;5.93;;
30378;SDS011;17168;49.164;9.060;2022-08-25T03:03:16;7.88;;;6.10;;
30378;SDS011;17168;49.164;9.060;2022-08-25T03:05:49;7.82;;;5.93;;
30378;SDS011;17168;49.164;9.060;2022-08-25T03:08:22;7.63;;;5.63;;
30378;SDS011;17168;49.164;9.060;2022-08-25T03:10:55;7.70;;;5.68;;
30378;SDS011;17168;49.164;9.060;2022-08-25T03:13:27;6.68;;;5.93;;
30378;SDS011;17168;49.164;9.060;2022-08-25T03:15:59;8.82;;;5.68;;
30378;SDS011;17168;49.164;9.060;2022-08-25T03:18:33;7.43;;;5.35;;
30378;SDS011;17168;49.164;9.060;2022-08-25T03:21:17;8.25;;;6.18;;
30378;SDS011;17168;49.164;9.060;2022-08-25T03:24:01;8.98;;;5.60;;
30378;SDS011;17168;49.164;9.060;2022-08-25T03:26:33;8.85;;;5.82;;
30378;SDS011;17168;49.164;9.060;2022-08-25T03:29:25;7.55;;;6.25;;
30378;SDS011;17168;49.164;9.060;2022-08-25T03:31:57;9.23;;;6.65;;
30378;SDS011;17168;49.164;9.060;2022-08-25T03:34:30;8.77;;;6.67;;
30378;SDS011;17168;49.164;9.060;2022-08-25T03:37:04;7.85;;;6.47;;
30378;SDS011;17168;49.164;9.060;2022-08-25T03:39:40;10.35;;;6.55;;
30378;SDS011;17168;49.164;9.060;2022-08-25T03:42:12;9.80;;;6.70;;
30378;SDS011;17168;49.164;9.060;2022-08-25T03:44:46;10.70;;;6.85;;
30378;SDS011;17168;49.164;9.060;2022-08-25T03:47:19;10.23;;;6.53;;
30378;SDS011;17168;49.164;9.060;2022-08-25T03:49:51;9.30;;;6.55;;
30378;SDS011;17168;49.164;9.060;2022-08-25T03:52:23;9.25;;;6.63;;
30378;SDS011;17168;49.164;9.060;2022-08-25T03:54:58;9.38;;;6.32;;
30378;SDS011;17168;49.164;9.060;2022-08-25T03:57:32;11.30;;;6.97;;
30378;SDS011;17168;49.164;9.060;2022-08-25T04:00:05;9.95;;;6.55;;
30378;SDS011;17168;49.164;9.060;2022-08-25T04:02:37;8.82;;;6.10;;
30378;SDS011;17168;49.164;9.060;2022-08-25T04:05:10;8.63;;;6.72;;
30378;SDS011;17168;49.164;9.060;2022-08-25T04:07:46;9.38;;;6.13;;
30378;SDS011;17168;49.164;9.060;2022-08-25T04:10:19;11.85;;;6.88;;
30378;SDS011;17168;49.164;9.060;2022-08-25T04:12:51;7.88;;;6.70;;
30378;SDS011;17168;49.164;9.060;2022-08-25T04:15:24;10.10;;;6.55;;
30378;SDS011;17168;49.164;9.060;2022-08-25T04:18:00;10.00;;;6.57;;
30378;SDS011;17168;49.164;9.060;2022-08-25T04:20:32;8.82;;;7.00;;
30378;SDS011;17168;49.164;9.060;2022-08-25T04:23:04;10.25;;;7.03;;
30378;SDS011;17168;49.164;9.060;2022-08-25T04:25:39;11.68;;;6.47;;
30378;SDS011;17168;49.164;9.060;2022-08-25T04:28:12;9.85;;;7.47;;
30378;SDS011;17168;49.164;9.060;2022-08-25T04:33:22;9.63;;;6.10;;
30378;SDS011;17168;49.164;9.060;2022-08-25T04:35:56;10.07;;;6.72;;
30378;SDS011;17168;49.164;9.060;2022-08-25T04:38:29;9.55;;;7.00;;
30378;SDS011;17168;49.164;9.060;2022-08-25T04:41:04;10.00;;;6.82;;
30378;SDS011;17168;49.164;9.060;2022-08-25T04:43:38;9.93;;;7.00;;
30378;SDS011;17168;49.164;9.060;2022-08-25T04:46:12;9.60;;;6.25;;
30378;SDS011;17168;49.164;9.060;2022-08-25T04:48:51;8.60;;;6.55;;
30378;SDS011;17168;49.164;9.060;2022-08-25T04:51:25;9.30;;;6.93;;
30378;SDS011;17168;49.164;9.060;2022-08-25T04:53:58;9.88;;;6.85;;
30378;SDS011;17168;49.164;9.060;2022-08-25T04:59:08;9.27;;;7.10;;
30378;SDS011;17168;49.164;9.060;2022-08-25T05:01:42;9.25;;;6.15;;
30378;SDS011;17168;49.164;9.060;2022-08-25T05:04:20;10.35;;;6.93;;
30378;SDS011;17168;49.164;9.060;2022-08-25T05:06:58;7.90;;;6.70;;
30378;SDS011;17168;49.164;9.060;2022-08-25T05:09:30;7.75;;;6.45;;
30378;SDS011;17168;49.164;9.060;2022-08-25T05:12:03;8.60;;;6.63;;
30378;SDS011;17168;49.164;9.060;2022-08-25T05:17:10;9.35;;;6.88;;
30378;SDS011;17168;49.164;9.060;2022-08-25T05:19:42;8.55;;;7.03;;
30378;SDS011;17168;49.164;9.060;2022-08-25T05:22:14;9.30;;;7.47;;
30378;SDS011;17168;49.164;9.060;2022-08-25T05:27:52;8.70;;;6.93;;
30378;SDS011;17168;49.164;9.060;2022-08-25T05:30:24;19.70;;;10.48;;
30378;SDS011;17168;49.164;9.060;2022-08-25T05:32:56;9.73;;;7.32;;
30378;SDS011;17168;49.164;9.060;2022-08-25T05:35:27;9.63;;;6.63;;
30378;SDS011;17168;49.164;9.060;2022-08-25T05:37:59;10.43;;;7.13;;
30378;SDS011;17168;49.164;9.060;2022-08-25T05:40:31;8.40;;;7.10;;
30378;SDS011;17168;49.164;9.060;2022-08-25T05:43:05;8.10;;;6.82;;
30378;SDS011;17168;49.164;9.060;2022-08-25T05:45:37;8.27;;;6.75;;
30378;SDS011;17168;49.164;9.060;2022-08-25T05:48:09;10.13;;;7.23;;
30378;SDS011;17168;49.164;9.060;2022-08-25T05:53:12;9.48;;;7.00;;
30378;SDS011;17168;49.164;9.060;2022-08-25T05:55:44;10.75;;;7.80;;
30378;SDS011;17168;49.164;9.060;2022-08-25T05:58:16;12.07;;;7.57;;
30378;SDS011;17168;49.164;9.060;2022-08-25T06:00:48;9.40;;;7.22;;
30378;SDS011;17168;49.164;9.060;2022-08-25T06:03:20;10.68;;;7.68;;
30378;SDS011;17168;49.164;9.060;2022-08-25T06:05:52;9.38;;;6.82;;
30378;SDS011;17168;49.164;9.060;2022-08-25T06:08:25;16.42;;;8.02;;
30378;SDS011;17168;49.164;9.060;2022-08-25T06:11:02;10.27;;;7.60;;
30378;SDS011;17168;49.164;9.060;2022-08-25T06:13:33;9.65;;;6.90;;
30378;SDS011;17168;49.164;9.060;2022-08-25T06:16:05;12.45;;;8.45;;
30378;SDS011;17168;49.164;9.060;2022-08-25T06:18:37;9.73;;;7.88;;
30378;SDS011;17168;49.164;9.060;2022-08-25T06:21:10;10.38;;;7.57;;
30378;SDS011;17168;49.164;9.060;2022-08-25T06:23:44;9.73;;;7.07;;
30378;SDS011;17168;49.164;9.060;2022-08-25T06:26:16;10.48;;;7.93;;
30378;SDS011;17168;49.164;9.060;2022-08-25T06:30:44;15.27;;;8.07;;
30378;SDS011;17168;49.164;9.060;2022-08-25T06:33:16;13.98;;;7.45;;
30378;SDS011;17168;49.164;9.060;2022-08-25T06:35:48;12.88;;;8.52;;
30378;SDS011;17168;49.164;9.060;2022-08-25T06:38:23;11.80;;;8.18;;
30378;SDS011;17168;49.164;9.060;2022-08-25T06:40:55;10.70;;;7.63;;
30378;SDS011;17168;49.164;9.060;2022-08-25T06:43:28;11.10;;;8.32;;
30378;SDS011;17168;49.164;9.060;2022-08-25T06:46:07;10.57;;;8.18;;
30378;SDS011;17168;49.164;9.060;2022-08-25T06:48:40;9.45;;;7.43;;
30378;SDS011;17168;49.164;9.060;2022-08-25T06:51:13;8.02;;;6.90;;
30378;SDS011;17168;49.164;9.060;2022-08-25T06:53:47;10.43;;;7.25;;
30378;SDS011;17168;49.164;9.060;2022-08-25T06:56:20;9.50;;;7.82;;
30378;SDS011;17168;49.164;9.060;2022-08-25T06:58:54;10.82;;;7.35;;
30378;SDS011;17168;49.164;9.060;2022-08-25T07:01:27;10.75;;;8.25;;
30378;SDS011;17168;49.164;9.060;2022-08-25T07:04:02;11.10;;;7.63;;
30378;SDS011;17168;49.164;9.060;2022-08-25T07:06:43;10.70;;;8.35;;
30378;SDS011;17168;49.164;9.060;2022-08-25T07:09:15;9.43;;;6.72;;
30378;SDS011;17168;49.164;9.060;2022-08-25T07:11:47;9.27;;;7.53;;
30378;SDS011;17168;49.164;9.060;2022-08-25T07:14:19;9.10;;;7.25;;
30378;SDS011;17168;49.164;9.060;2022-08-25T07:16:53;10.35;;;7.70;;
30378;SDS011;17168;49.164;9.060;2022-08-25T07:19:25;9.88;;;7.95;;
30378;SDS011;17168;49.164;9.060;2022-08-25T07:21:57;11.90;;;7.70;;
30378;SDS011;17168;49.164;9.060;2022-08-25T07:24:29;12.23;;;8.05;;
30378;SDS011;17168;49.164;9.060;2022-08-25T07:27:00;9.52;;;7.80;;
30378;SDS011;17168;49.164;9.060;2022-08-25T07:29:32;11.75;;;7.97;;
30378;SDS011;17168;49.164;9.060;2022-08-25T07:32:14;12.80;;;8.57;;
30378;SDS011;17168;49.164;9.060;2022-08-25T07:34:45;11.55;;;7.82;;
30378;SDS011;17168;49.164;9.060;2022-08-25T07:37:36;11.90;;;7.95;;
30378;SDS011;17168;49.164;9.060;2022-08-25T07:40:20;12.88;;;8.18;;
30378;SDS011;17168;49.164;9.060;2022-08-25T07:42:55;11.07;;;8.23;;
30378;SDS011;17168;49.164;9.060;2022-08-25T07:45:31;12.18;;;8.25;;
30378;SDS011;17168;49.164;9.060;2022-08-25T07:48:07;11.90;;;8.82;;
30378;SDS011;17168;49.164;9.060;2022-08-25T07:50:41;9.63;;;7.60;;
30378;SDS011;17168;49.164;9.060;2022-08-25T07:53:15;10.18;;;7.50;;
30378;SDS011;17168;49.164;9.060;2022-08-25T07:55:48;11.65;;;7.40;;
30378;SDS011;17168;49.164;9.060;2022-08-25T07:58:23;8.98;;;6.95;;
30378;SDS011;17168;49.164;9.060;2022-08-25T08:00:55;9.63;;;7.00;;
30378;SDS011;17168;49.164;9.060;2022-08-25T08:03:29;11.00;;;6.97;;
30378;SDS011;17168;49.164;9.060;2022-08-25T08:06:21;9.77;;;6.93;;
30378;SDS011;17168;49.164;9.060;2022-08-25T08:08:54;11.10;;;7.35;;
30378;SDS011;17168;49.164;9.060;2022-08-25T08:11:29;9.57;;;6.43;;
30378;SDS011;17168;49.164;9.060;2022-08-25T08:14:07;9.88;;;7.00;;
30378;SDS011;17168;49.164;9.060;2022-08-25T08:16:39;9.43;;;7.22;;
30378;SDS011;17168;49.164;9.060;2022-08-25T08:19:13;8.25;;;7.00;;
30378;SDS011;17168;49.164;9.060;2022-08-25T08:24:17;9.60;;;6.63;;
30378;SDS011;17168;49.164;9.060;2022-08-25T08:27:09;8.10;;;7.03;;
30378;SDS011;17168;49.164;9.060;2022-08-25T08:29:42;8.45;;;7.15;;
30378;SDS011;17168;49.164;9.060;2022-08-25T08:32:14;10.18;;;7.05;;
30378;SDS011;17168;49.164;9.060;2022-08-25T08:34:50;9.00;;;6.75;;
30378;SDS011;17168;49.164;9.060;2022-08-25T08:37:22;10.82;;;7.05;;
30378;SDS011;17168;49.164;9.060;2022-08-25T08:39:54;10.10;;;6.80;;
30378;SDS011;17168;49.164;9.060;2022-08-25T08:42:32;7.93;;;7.10;;
30378;SDS011;17168;49.164;9.060;2022-08-25T08:45:24;8.40;;;6.53;;
30378;SDS011;17168;49.164;9.060;2022-08-25T08:48:29;13.38;;;7.72;;
30378;SDS011;17168;49.164;9.060;2022-08-25T08:51:15;9.70;;;6.93;;
30378;SDS011;17168;49.164;9.060;2022-08-25T08:53:54;8.55;;;6.55;;
30378;SDS011;17168;49.164;9.060;2022-08-25T08:56:28;8.85;;;6.28;;
30378;SDS011;17168;49.164;9.060;2022-08-25T08:59:02;8.20;;;6.45;;
30378;SDS011;17168;49.164;9.060;2022-08-25T09:01:41;7.90;;;6.18;;
30378;SDS011;17168;49.164;9.060;2022-08-25T09:04:17;8.18;;;6.00;;
30378;SDS011;17168;49.164;9.060;2022-08-25T09:06:56;7.75;;;6.50;;
30378;SDS011;17168;49.164;9.060;2022-08-25T09:09:32;7.85;;;5.82;;
30378;SDS011;17168;49.164;9.060;2022-08-25T09:12:08;10.70;;;6.40;;
30378;SDS011;17168;49.164;9.060;2022-08-25T09:14:51;6.55;;;5.85;;
30378;SDS011;17168;49.164;9.060;2022-08-25T09:17:47;7.47;;;6.55;;
30378;SDS011;17168;49.164;9.060;2022-08-25T09:23:33;7.93;;;5.95;;
30378;SDS011;17168;49.164;9.060;2022-08-25T09:26:17;8.00;;;6.40;;
30378;SDS011;17168;49.164;9.060;2022-08-25T09:29:00;8.73;;;6.05;;
30378;SDS011;17168;49.164;9.060;2022-08-25T09:31:37;8.95;;;6.55;;
30378;SDS011;17168;49.164;9.060;2022-08-25T09:34:10;8.38;;;6.03;;
30378;SDS011;17168;49.164;9.060;2022-08-25T09:36:47;7.88;;;6.40;;
30378;SDS011;17168;49.164;9.060;2022-08-25T09:39:25;7.55;;;5.35;;
30378;SDS011;17168;49.164;9.060;2022-08-25T09:41:57;7.25;;;5.60;;
30378;SDS011;17168;49.164;9.060;2022-08-25T09:44:31;7.60;;;5.40;;
30378;SDS011;17168;49.164;9.060;2022-08-25T09:47:05;6.78;;;5.25;;
30378;SDS011;17168;49.164;9.060;2022-08-25T09:49:48;8.20;;;5.25;;
30378;SDS011;17168;49.164;9.060;2022-08-25T09:52:31;8.10;;;5.53;;
30378;SDS011;17168;49.164;9.060;2022-08-25T09:58:15;5.45;;;4.65;;
30378;SDS011;17168;49.164;9.060;2022-08-25T10:00:59;5.80;;;5.20;;
30378;SDS011;17168;49.164;9.060;2022-08-25T10:03:34;9.68;;;5.30;;
30378;SDS011;17168;49.164;9.060;2022-08-25T10:06:08;5.78;;;5.03;;
30378;SDS011;17168;49.164;9.060;2022-08-25T10:08:50;6.10;;;4.93;;
30378;SDS011;17168;49.164;9.060;2022-08-25T10:11:38;6.85;;;5.35;;
30378;SDS011;17168;49.164;9.060;2022-08-25T10:14:15;7.20;;;5.10;;
30378;SDS011;17168;49.164;9.060;2022-08-25T10:16:51;7.40;;;5.75;;
30378;SDS011;17168;49.164;9.060;2022-08-25T10:19:25;7.30;;;5.28;;
30378;SDS011;17168;49.164;9.060;2022-08-25T10:22:01;6.22;;;5.47;;
30378;SDS011;17168;49.164;9.060;2022-08-25T10:24:41;7.95;;;5.22;;
30378;SDS011;17168;49.164;9.060;2022-08-25T10:27:17;7.13;;;4.68;;
30378;SDS011;17168;49.164;9.060;2022-08-25T10:30:04;5.35;;;4.45;;
30378;SDS011;17168;49.164;9.060;2022-08-25T10:32:49;7.28;;;4.60;;
30378;SDS011;17168;49.164;9.060;2022-08-25T10:35:34;5.07;;;4.38;;
30378;SDS011;17168;49.164;9.060;2022-08-25T10:38:22;6.35;;;3.95;;
30378;SDS011;17168;49.164;9.060;2022-08-25T10:41:14;5.03;;;4.38;;
30378;SDS011;17168;49.164;9.060;2022-08-25T10:44:00;4.30;;;3.90;;
30378;SDS011;17168;49.164;9.060;2022-08-25T10:47:03;5.95;;;4.28;;
30378;SDS011;17168;49.164;9.060;2022-08-25T10:49:54;4.93;;;4.43;;
30378;SDS011;17168;49.164;9.060;2022-08-25T10:52:35;5.47;;;3.97;;
30378;SDS011;17168;49.164;9.060;2022-08-25T10:55:17;9.75;;;4.47;;
30378;SDS011;17168;49.164;9.060;2022-08-25T10:57:56;4.38;;;3.88;;
30378;SDS011;17168;49.164;9.060;2022-08-25T11:00:38;5.32;;;4.35;;
30378;SDS011;17168;49.164;9.060;2022-08-25T11:03:25;6.22;;;4.25;;
30378;SDS011;17168;49.164;9.060;2022-08-25T11:06:06;5.20;;;4.55;;
30378;SDS011;17168;49.164;9.060;2022-08-25T11:08:43;5.13;;;4.40;;
30378;SDS011;17168;49.164;9.060;2022-08-25T11:11:23;5.30;;;4.28;;
30378;SDS011;17168;49.164;9.060;2022-08-25T11:13:59;4.85;;;4.13;;
30378;SDS011;17168;49.164;9.060;2022-08-25T11:16:43;7.45;;;4.30;;
30378;SDS011;17168;49.164;9.060;2022-08-25T11:19:22;7.00;;;3.70;;
30378;SDS011;17168;49.164;9.060;2022-08-25T11:22:03;5.53;;;4.20;;
30378;SDS011;17168;49.164;9.060;2022-08-25T11:24:54;4.90;;;4.40;;
30378;SDS011;17168;49.164;9.060;2022-08-25T11:27:36;7.68;;;4.25;;
30378;SDS011;17168;49.164;9.060;2022-08-25T11:30:12;4.63;;;4.00;;
30378;SDS011;17168;49.164;9.060;2022-08-25T11:32:48;4.68;;;4.03;;
30378;SDS011;17168;49.164;9.060;2022-08-25T11:35:25;4.93;;;4.13;;
30378;SDS011;17168;49.164;9.060;2022-08-25T11:38:04;6.35;;;4.07;;
30378;SDS011;17168;49.164;9.060;2022-08-25T11:40:49;5.85;;;4.20;;
30378;SDS011;17168;49.164;9.060;2022-08-25T11:43:31;7.03;;;4.22;;
30378;SDS011;17168;49.164;9.060;2022-08-25T11:46:17;7.88;;;3.80;;
30378;SDS011;17168;49.164;9.060;2022-08-25T11:49:02;5.93;;;4.32;;
30378;SDS011;17168;49.164;9.060;2022-08-25T11:51:47;4.80;;;4.28;;
30378;SDS011;17168;49.164;9.060;2022-08-25T11:54:21;4.10;;;3.70;;
30378;SDS011;17168;49.164;9.060;2022-08-25T11:56:58;5.85;;;4.15;;
30378;SDS011;17168;49.164;9.060;2022-08-25T12:02:38;4.40;;;4.00;;
30378;SDS011;17168;49.164;9.060;2022-08-25T12:08:47;4.28;;;3.40;;
30378;SDS011;17168;49.164;9.060;2022-08-25T12:14:31;4.78;;;3.58;;
30378;SDS011;17168;49.164;9.060;2022-08-25T12:17:16;7.50;;;3.88;;
30378;SDS011;17168;49.164;9.060;2022-08-25T12:19:55;4.68;;;3.50;;
30378;SDS011;17168;49.164;9.060;2022-08-25T12:22:53;4.00;;;3.60;;
30378;SDS011;17168;49.164;9.060;2022-08-25T12:25:29;4.78;;;3.80;;
30378;SDS011;17168;49.164;9.060;2022-08-25T12:28:10;4.43;;;3.70;;
30378;SDS011;17168;49.164;9.060;2022-08-25T12:31:07;5.80;;;3.58;;
30378;SDS011;17168;49.164;9.060;2022-08-25T12:33:52;5.00;;;3.45;;
30378;SDS011;17168;49.164;9.060;2022-08-25T12:36:37;3.72;;;3.30;;
30378;SDS011;17168;49.164;9.060;2022-08-25T12:39:17;4.45;;;3.75;;
30378;SDS011;17168;49.164;9.060;2022-08-25T12:41:55;3.70;;;3.40;;
30378;SDS011;17168;49.164;9.060;2022-08-25T12:44:36;5.25;;;3.72;;
30378;SDS011;17168;49.164;9.060;2022-08-25T12:47:24;3.92;;;3.55;;
30378;SDS011;17168;49.164;9.060;2022-08-25T12:52:59;3.60;;;3.30;;
30378;SDS011;17168;49.164;9.060;2022-08-25T12:55:45;3.80;;;3.40;;
30378;SDS011;17168;49.164;9.060;2022-08-25T12:58:20;4.00;;;3.15;;
30378;SDS011;17168;49.164;9.060;2022-08-25T13:01:12;3.60;;;3.00;;
30378;SDS011;17168;49.164;9.060;2022-08-25T13:04:16;6.40;;;3.30;;
30378;SDS011;17168;49.164;9.060;2022-08-25T13:07:15;3.95;;;3.30;;
30378;SDS011;17168;49.164;9.060;2022-08-25T13:10:07;3.50;;;3.03;;
30378;SDS011;17168;49.164;9.060;2022-08-25T13:12:53;4.95;;;2.70;;
30378;SDS011;17168;49.164;9.060;2022-08-25T13:18:13;4.40;;;3.20;;
30378;SDS011;17168;49.164;9.060;2022-08-25T13:20:49;6.10;;;3.13;;
30378;SDS011;17168;49.164;9.060;2022-08-25T13:23:26;5.18;;;2.90;;
30378;SDS011;17168;49.164;9.060;2022-08-25T13:25:59;5.47;;;3.00;;
30378;SDS011;17168;49.164;9.060;2022-08-25T13:28:34;4.40;;;2.95;;
30378;SDS011;17168;49.164;9.060;2022-08-25T13:31:13;4.35;;;2.95;;
30378;SDS011;17168;49.164;9.060;2022-08-25T13:33:49;3.33;;;2.78;;
30378;SDS011;17168;49.164;9.060;2022-08-25T13:36:25;3.42;;;3.05;;
30378;SDS011;17168;49.164;9.060;2022-08-25T13:39:24;3.13;;;2.83;;
30378;SDS011;17168;49.164;9.060;2022-08-25T13:42:17;3.40;;;3.10;;
30378;SDS011;17168;49.164;9.060;2022-08-25T13:44:51;3.58;;;3.28;;
30378;SDS011;17168;49.164;9.060;2022-08-25T13:47:31;3.20;;;2.90;;
30378;SDS011;17168;49.164;9.060;2022-08-25T13:50:17;4.72;;;3.20;;
30378;SDS011;17168;49.164;9.060;2022-08-25T13:52:53;3.58;;;3.08;;
30378;SDS011;17168;49.164;9.060;2022-08-25T13:55:28;4.97;;;3.22;;
30378;SDS011;17168;49.164;9.060;2022-08-25T13:58:22;3.58;;;2.97;;
30378;SDS011;17168;49.164;9.060;2022-08-25T14:01:18;3.40;;;2.97;;
30378;SDS011;17168;49.164;9.060;2022-08-25T14:04:19;3.28;;;2.83;;
30378;SDS011;17168;49.164;9.060;2022-08-25T14:20:19;3.10;;;2.90;;
30378;SDS011;17168;49.164;9.060;2022-08-25T14:22:56;3.20;;;2.90;;
30378;SDS011;17168;49.164;9.060;2022-08-25T14:25:29;3.22;;;2.92;;
30378;SDS011;17168;49.164;9.060;2022-08-25T14:28:03;3.17;;;2.85;;
30378;SDS011;17168;49.164;9.060;2022-08-25T14:30:38;6.25;;;2.97;;
30378;SDS011;17168;49.164;9.060;2022-08-25T14:53:57;3.87;;;2.93;;
30378;SDS011;17168;49.164;9.060;2022-08-25T14:56:32;4.70;;;2.70;;
30378;SDS011;17168;49.164;9.060;2022-08-25T15:37:25;4.82;;;2.97;;
30378;SDS011;17168;49.164;9.060;2022-08-25T15:39:57;3.45;;;2.90;;
30378;SDS011;17168;49.164;9.060;2022-08-25T15:42:29;3.20;;;2.90;;
30378;SDS011;17168;49.164;9.060;2022-08-25T15:45:02;4.20;;;2.65;;
30378;SDS011;17168;49.164;9.060;2022-08-25T15:47:35;3.30;;;3.00;;
30378;SDS011;17168;49.164;9.060;2022-08-25T15:50:12;3.00;;;2.80;;
30378;SDS011;17168;49.164;9.060;2022-08-25T15:52:46;3.58;;;3.17;;
30378;SDS011;17168;49.164;9.060;2022-08-25T15:55:18;4.90;;;2.97;;
30378;SDS011;17168;49.164;9.060;2022-08-25T15:57:51;4.55;;;3.55;;
30378;SDS011;17168;49.164;9.060;2022-08-25T16:00:24;3.28;;;2.97;;
30378;SDS011;17168;49.164;9.060;2022-08-25T16:03:02;3.60;;;3.10;;
30378;SDS011;17168;49.164;9.060;2022-08-25T16:08:08;4.97;;;2.85;;
30378;SDS011;17168;49.164;9.060;2022-08-25T16:13:21;4.20;;;3.20;;
30378;SDS011;17168;49.164;9.060;2022-08-25T16:15:53;3.15;;;2.90;;
30378;SDS011;17168;49.164;9.060;2022-08-25T16:18:26;3.13;;;2.83;;
30378;SDS011;17168;49.164;9.060;2022-08-25T16:20:59;4.18;;;2.97;;
30378;SDS011;17168;49.164;9.060;2022-08-25T16:23:31;3.42;;;2.90;;
30378;SDS011;17168;49.164;9.060;2022-08-25T16:28:37;3.03;;;2.80;;
30378;SDS011;17168;49.164;9.060;2022-08-25T16:31:14;3.22;;;2.92;;
30378;SDS011;17168;49.164;9.060;2022-08-25T16:33:47;7.65;;;3.25;;
30378;SDS011;17168;49.164;9.060;2022-08-25T16:36:21;4.45;;;3.00;;
30378;SDS011;17168;49.164;9.060;2022-08-25T16:38:57;7.00;;;2.97;;
30378;SDS011;17168;49.164;9.060;2022-08-25T16:41:31;4.22;;;2.97;;
30378;SDS011;17168;49.164;9.060;2022-08-25T16:44:06;3.30;;;2.85;;
30378;SDS011;17168;49.164;9.060;2022-08-25T16:46:41;3.30;;;3.00;;
30378;SDS011;17168;49.164;9.060;2022-08-25T16:49:14;3.47;;;3.05;;
30378;SDS011;17168;49.164;9.060;2022-08-25T16:51:47;4.88;;;2.90;;
30378;SDS011;17168;49.164;9.060;2022-08-25T16:54:28;4.00;;;2.70;;
30378;SDS011;17168;49.164;9.060;2022-08-25T16:57:18;3.80;;;3.00;;
30378;SDS011;17168;49.164;9.060;2022-08-25T16:59:56;3.83;;;3.17;;
30378;SDS011;17168;49.164;9.060;2022-08-25T17:02:28;3.30;;;2.90;;
30378;SDS011;17168;49.164;9.060;2022-08-25T17:05:01;3.30;;;3.00;;
30378;SDS011;17168;49.164;9.060;2022-08-25T17:07:35;3.25;;;2.95;;
30378;SDS011;17168;49.164;9.060;2022-08-25T17:10:07;5.68;;;3.22;;
30378;SDS011;17168;49.164;9.060;2022-08-25T17:12:43;3.83;;;3.30;;
30378;SDS011;17168;49.164;9.060;2022-08-25T17:17:52;4.22;;;3.17;;
30378;SDS011;17168;49.164;9.060;2022-08-25T17:20:24;4.40;;;3.20;;
30378;SDS011;17168;49.164;9.060;2022-08-25T17:22:59;3.72;;;3.20;;
30378;SDS011;17168;49.164;9.060;2022-08-25T17:25:32;3.92;;;3.03;;
30378;SDS011;17168;49.164;9.060;2022-08-25T17:28:05;12.95;;;5.15;;
30378;SDS011;17168;49.164;9.060;2022-08-25T17:30:42;4.53;;;3.55;;
30378;SDS011;17168;49.164;9.060;2022-08-25T17:33:15;3.33;;;2.92;;
30378;SDS011;17168;49.164;9.060;2022-08-25T17:35:54;4.70;;;3.30;;
30378;SDS011;17168;49.164;9.060;2022-08-25T17:38:28;3.42;;;3.13;;
30378;SDS011;17168;49.164;9.060;2022-08-25T17:41:04;3.30;;;3.00;;
30378;SDS011;17168;49.164;9.060;2022-08-25T17:43:38;5.45;;;3.15;;
30378;SDS011;17168;49.164;9.060;2022-08-25T17:46:11;4.18;;;3.15;;
30378;SDS011;17168;49.164;9.060;2022-08-25T17:48:44;3.80;;;3.10;;